This is the latest recevied weather packets stored in our database for station/object SQ9SMC-13. If no packets are shown the sender has not sent any weather packets the latest 1 day(s).
| Time | Temp. | Humidity | Pressure | Rain* | Wind** | Luminosity | Snow |
|---|---|---|---|---|---|---|---|
| 1778017504 | 18.33° C | 46% | 1008.8 hPa | 0 mm | 0 m/s | 0 W/m² | - |
| 1778017204 | 18.33° C | 46% | 1008.8 hPa | 0 mm | 0.45 m/s, 350° | 0 W/m² | - |
| 1778016904 | 18.33° C | 46% | 1008.7 hPa | 0 mm | 0 m/s | 0 W/m² | - |
| 1778016605 | 18.33° C | 45% | 1008.5 hPa | 0 mm | 0.45 m/s, 11° | 0 W/m² | - |
| 1778016303 | 18.33° C | 45% | 1008.6 hPa | 0 mm | 0.45 m/s, 8° | 0 W/m² | - |
| 1778016005 | 18.33° C | 45% | 1008.7 hPa | 0 mm | 0 m/s | 0 W/m² | - |
| 1778015702 | 18.33° C | 45% | 1008.6 hPa | 0 mm | 0.45 m/s, 267° | 0 W/m² | - |
| 1778015404 | 18.33° C | 45% | 1008.5 hPa | 0 mm | 1.34 m/s, 343° | 0 W/m² | - |
| 1778015103 | 17.78° C | 45% | 1008.6 hPa | 0 mm | 1.34 m/s, 9° | 0 W/m² | - |
| 1778014802 | 17.78° C | 46% | 1008.5 hPa | 0 mm | 0 m/s | 0 W/m² | - |
| 1778014502 | 17.78° C | 46% | 1008.5 hPa | 0 mm | 0 m/s | 0 W/m² | - |
| 1778014202 | 17.22° C | 46% | 1008.6 hPa | 0 mm | 0 m/s | 0 W/m² | - |
| 1778013903 | 15.56° C | 50% | 1008.5 hPa | 0 mm | 0 m/s | 0 W/m² | - |
| 1778013603 | 13.33° C | 55% | 1008.5 hPa | 0 mm | 0 m/s | 0 W/m² | - |
| 1778013305 | 12.22° C | 59% | 1008.6 hPa | 0 mm | 0 m/s | 0 W/m² | - |
| 1778013006 | 11.67° C | 63% | 1008.6 hPa | 0 mm | 0 m/s | 0 W/m² | - |
| 1778012703 | 12.22° C | 63% | 1008.6 hPa | 0 mm | 0 m/s | 0 W/m² | - |
| 1778012404 | 12.22° C | 60% | 1008.5 hPa | 0 mm | 0 m/s | 0 W/m² | - |
| 1778012103 | 12.22° C | 59% | 1008.6 hPa | 0 mm | 0 m/s | 0 W/m² | - |
| 1778011805 | 12.22° C | 59% | 1008.5 hPa | 0 mm | 0 m/s | 0 W/m² | - |
| 1778011503 | 12.22° C | 58% | 1008.4 hPa | 0 mm | 0 m/s | 0 W/m² | - |
| 1778011204 | 12.78° C | 58% | 1008.6 hPa | 0 mm | 0 m/s | 0 W/m² | - |
| 1778010903 | 12.78° C | 57% | 1008.4 hPa | 0 mm | 0 m/s | 0 W/m² | - |
| 1778010603 | 12.78° C | 56% | 1008.6 hPa | 0 mm | 0 m/s | 0 W/m² | - |
| 1778010304 | 13.33° C | 55% | 1008.3 hPa | 0 mm | 0 m/s | 0 W/m² | - |
* Rain latest hour (hover to see other rain measurements)
** Current wind speed in m/s (hover to see current wind gust speed)